Time;durP1;ratioP1;P1;durP2;ratioP2;P2;SDS_P1;SDS_P2;PMS_P1;PMS_P2;Temp;Humidity;BMP_temperature;BMP_pressure;BME280_temperature;BME280_humidity;BME280_pressure;Samples;Min_cycle;Max_cycle;Signal;HPM_P1;HPM_P2
2023/07/12 00:01:13;;;;;;;4.13;2.08;;;18.20;99.90;;;;;;5015681;28;20498;-62
2023/07/12 00:03:39;;;;;;;3.88;2.08;;;18.10;99.90;;;;;;5015390;28;20141;-62
2023/07/12 00:06:13;;;;;;;4.25;2.20;;;18.30;99.90;;;;;;5015562;28;20088;-62
2023/07/12 00:08:40;;;;;;;6.03;2.10;;;18.20;99.90;;;;;;5015608;28;20038;-62
2023/07/12 00:11:21;;;;;;;3.65;1.92;;;18.20;99.90;;;;;;5015602;28;20126;-62
2023/07/12 00:13:48;;;;;;;3.55;1.70;;;18.80;99.90;;;;;;5015290;28;20077;-62
2023/07/12 00:16:26;;;;;;;5.57;1.92;;;18.20;99.90;;;;;;5030658;28;20052;-62
2023/07/12 00:18:53;;;;;;;3.50;2.10;;;18.20;99.90;;;;;;5015108;28;20038;-62
2023/07/12 00:21:24;;;;;;;5.70;2.10;;;18.20;99.90;;;;;;5015051;28;20084;-62
2023/07/12 00:23:58;;;;;;;4.43;2.35;;;18.80;99.90;;;;;;5015335;28;20069;-63
2023/07/12 00:26:28;;;;;;;3.40;2.30;;;18.20;99.90;;;;;;5015277;28;20393;-62
2023/07/12 00:28:55;;;;;;;5.97;2.55;;;18.10;99.90;;;;;;5015247;28;20038;-62
2023/07/12 00:31:21;;;;;;;4.30;2.10;;;17.80;99.90;;;;;;5015238;28;20398;-62
2023/07/12 00:33:46;;;;;;;3.15;1.92;;;18.30;99.90;;;;;;5015085;28;20379;-62
2023/07/12 00:36:17;;;;;;;3.35;2.08;;;18.00;99.90;;;;;;5015092;28;20050;-62
2023/07/12 00:38:42;;;;;;;5.95;2.33;;;18.20;99.90;;;;;;5014795;28;20054;-62
2023/07/12 00:41:08;;;;;;;3.95;2.30;;;18.10;99.90;;;;;;5014947;28;20042;-62
2023/07/12 00:43:41;;;;;;;3.38;2.10;;;18.10;99.90;;;;;;5013081;28;20084;-62
2023/07/12 00:46:09;;;;;;;4.72;2.38;;;18.10;99.90;;;;;;5014912;28;20050;-62
2023/07/12 00:48:35;;;;;;;4.28;2.28;;;18.10;99.90;;;;;;5014530;28;20038;-62
2023/07/12 00:51:22;;;;;;;3.97;2.13;;;18.00;99.90;;;;;;5013566;28;20107;-62
2023/07/12 00:53:47;;;;;;;3.45;1.95;;;18.10;99.90;;;;;;5014541;28;20049;-63
2023/07/12 00:56:13;;;;;;;3.25;2.17;;;18.10;99.90;;;;;;5013571;28;20038;-62
2023/07/12 00:58:48;;;;;;;3.17;2.10;;;17.80;99.90;;;;;;5014417;28;20168;-62
2023/07/12 01:01:14;;;;;;;3.65;1.80;;;18.90;99.90;;;;;;5014514;28;20095;-63
2023/07/12 01:03:44;;;;;;;3.33;2.20;;;18.60;99.90;;;;;;5014271;28;20046;-63
2023/07/12 01:06:13;;;;;;;3.55;2.03;;;18.00;99.90;;;;;;5014504;28;20041;-63
2023/07/12 01:08:43;;;;;;;3.03;1.88;;;18.90;99.90;;;;;;5014605;28;20045;-62
2023/07/12 01:11:14;;;;;;;4.45;2.40;;;18.00;99.90;;;;;;5014276;28;20061;-62
2023/07/12 01:13:48;;;;;;;4.03;2.03;;;18.70;99.90;;;;;;5014455;28;20482;-62
2023/07/12 01:16:17;;;;;;;3.17;2.15;;;18.00;99.90;;;;;;5014343;28;20049;-62
2023/07/12 01:18:42;;;;;;;4.00;2.20;;;18.00;99.90;;;;;;5014297;28;20490;-62
2023/07/12 01:21:14;;;;;;;3.03;1.95;;;18.70;99.90;;;;;;5013846;28;20052;-62
2023/07/12 01:23:41;;;;;;;3.22;2.10;;;18.00;99.90;;;;;;5014246;28;20088;-62
2023/07/12 01:26:17;;;;;;;3.05;2.22;;;17.70;99.90;;;;;;5014154;28;20052;-62
2023/07/12 01:28:43;;;;;;;4.55;2.20;;;17.90;99.90;;;;;;5014057;28;20100;-62
2023/07/12 01:31:09;;;;;;;3.75;2.25;;;18.50;99.90;;;;;;5014103;28;20437;-62
2023/07/12 01:33:34;;;;;;;3.30;2.03;;;18.00;99.90;;;;;;5014094;28;20054;-63
2023/07/12 01:36:00;;;;;;;3.75;2.10;;;18.40;99.90;;;;;;5013692;28;20044;-63
2023/07/12 01:38:25;;;;;;;4.40;1.73;;;17.90;99.90;;;;;;5014066;28;20041;-62
2023/07/12 01:40:51;;;;;;;3.78;2.15;;;18.10;99.90;;;;;;5013884;28;20493;-62
2023/07/12 01:43:17;;;;;;;3.70;1.80;;;17.80;99.90;;;;;;5013811;28;20080;-62
2023/07/12 01:45:42;;;;;;;5.13;2.10;;;17.40;99.90;;;;;;5013823;28;20049;-62
2023/07/12 01:48:08;;;;;;;3.33;2.03;;;17.80;99.90;;;;;;5013818;28;20034;-62
2023/07/12 01:50:33;;;;;;;2.92;1.70;;;17.80;99.90;;;;;;5013717;28;20090;-62
2023/07/12 01:52:59;;;;;;;6.45;2.40;;;17.80;99.90;;;;;;5012062;28;20510;-62
2023/07/12 01:55:24;;;;;;;2.70;1.90;;;17.70;99.90;;;;;;5012536;28;20048;-62
2023/07/12 01:57:50;;;;;;;3.25;2.05;;;17.70;99.90;;;;;;5013616;28;20088;-63
2023/07/12 02:00:16;;;;;;;3.88;2.20;;;19.50;99.90;;;;;;5013251;28;20072;-62
2023/07/12 02:02:41;;;;;;;3.38;2.15;;;17.70;99.90;;;;;;5013271;28;20053;-62
2023/07/12 02:05:07;;;;;;;3.17;2.17;;;17.70;99.90;;;;;;5012346;28;20056;-62
2023/07/12 02:07:33;;;;;;;3.42;2.00;;;17.70;99.90;;;;;;5013520;28;20045;-62
2023/07/12 02:10:19;;;;;;;3.88;2.05;;;17.40;99.90;;;;;;5013163;28;20176;-62
2023/07/12 02:12:45;;;;;;;4.00;1.90;;;17.60;99.90;;;;;;5013482;28;20042;-62
2023/07/12 02:15:12;;;;;;;5.03;2.30;;;17.70;99.90;;;;;;5013402;28;20110;-62
2023/07/12 02:17:39;;;;;;;7.47;2.30;;;17.40;99.90;;;;;;5013191;28;20038;-62
2023/07/12 02:20:06;;;;;;;8.20;2.70;;;18.10;99.90;;;;;;5013177;28;20034;-62
2023/07/12 02:22:34;;;;;;;4.05;2.22;;;17.60;99.90;;;;;;5013133;28;20134;-62
2023/07/12 02:25:00;;;;;;;5.10;2.13;;;17.60;99.90;;;;;;5013313;28;20037;-62
2023/07/12 02:27:26;;;;;;;3.10;1.70;;;17.50;99.90;;;;;;5013266;28;20175;-62
2023/07/12 02:29:53;;;;;;;8.65;2.25;;;17.50;99.90;;;;;;5013313;28;20113;-62
2023/07/12 02:32:20;;;;;;;3.30;2.30;;;17.50;99.90;;;;;;5013229;28;20045;-62
2023/07/12 02:34:47;;;;;;;4.68;2.33;;;17.50;99.90;;;;;;5013025;28;20050;-62
2023/07/12 02:37:13;;;;;;;4.90;2.70;;;17.40;99.90;;;;;;5013171;28;20042;-62
2023/07/12 02:39:39;;;;;;;6.00;2.55;;;17.40;99.90;;;;;;5012910;28;20034;-63
2023/07/12 02:42:05;;;;;;;5.22;2.15;;;17.50;99.90;;;;;;5012975;28;20092;-62
2023/07/12 02:44:30;;;;;;;5.13;2.50;;;17.40;99.90;;;;;;5011847;28;20304;-62
2023/07/12 02:46:56;;;;;;;4.25;2.38;;;17.20;99.90;;;;;;5013029;28;20037;-62
2023/07/12 02:49:21;;;;;;;4.22;2.50;;;17.30;99.90;;;;;;5012868;28;20552;-62
2023/07/12 02:51:47;;;;;;;5.88;2.53;;;18.10;99.90;;;;;;5013009;28;20073;-63
2023/07/12 02:54:12;;;;;;;3.78;2.20;;;18.20;99.90;;;;;;5012944;28;20512;-62
2023/07/12 02:56:38;;;;;;;3.72;2.20;;;17.60;99.90;;;;;;5013019;28;20469;-62
2023/07/12 02:59:03;;;;;;;5.25;2.03;;;17.30;99.90;;;;;;5012935;28;20045;-62
2023/07/12 03:01:29;;;;;;;4.03;2.40;;;17.30;99.90;;;;;;5011369;28;20049;-62
2023/07/12 03:03:55;;;;;;;6.53;2.50;;;17.70;99.90;;;;;;5012507;28;20125;-62
2023/07/12 03:06:20;;;;;;;5.40;2.42;;;17.40;99.90;;;;;;5015230;28;20076;-62
2023/07/12 03:08:46;;;;;;;5.45;2.70;;;17.90;99.90;;;;;;5016719;28;20033;-62
2023/07/12 03:11:12;;;;;;;4.30;2.50;;;17.50;99.90;;;;;;5016606;28;20547;-62
2023/07/12 03:13:37;;;;;;;6.15;3.05;;;17.40;99.90;;;;;;5016655;28;20060;-62
2023/07/12 03:16:05;;;;;;;5.22;2.40;;;17.30;99.90;;;;;;5016595;28;20045;-62
2023/07/12 03:18:31;;;;;;;6.25;2.78;;;17.80;99.90;;;;;;5016168;28;20049;-62
2023/07/12 03:21:01;;;;;;;6.63;2.88;;;17.60;99.90;;;;;;5016036;28;20038;-62
2023/07/12 03:23:29;;;;;;;4.82;2.80;;;17.70;99.90;;;;;;5016518;28;20042;-63
2023/07/12 03:25:55;;;;;;;5.28;2.88;;;17.70;99.90;;;;;;5016082;28;20088;-62
2023/07/12 03:28:21;;;;;;;4.43;2.60;;;17.60;99.90;;;;;;5016119;28;20037;-62
2023/07/12 03:31:02;;;;;;;4.70;3.00;;;17.30;99.90;;;;;;5016323;28;20383;-62
2023/07/12 03:33:28;;;;;;;4.82;2.95;;;18.20;99.90;;;;;;5014747;28;20041;-62
2023/07/12 03:35:54;;;;;;;3.90;2.25;;;17.30;99.90;;;;;;5016146;28;20125;-62
2023/07/12 03:38:24;;;;;;;6.35;2.75;;;17.80;99.90;;;;;;5016259;28;20046;-62
2023/07/12 03:40:51;;;;;;;3.72;2.50;;;17.60;99.90;;;;;;5015844;28;20108;-62
2023/07/12 03:43:16;;;;;;;7.78;2.60;;;17.50;99.90;;;;;;5016119;28;20381;-62
2023/07/12 03:45:43;;;;;;;8.00;2.88;;;17.50;99.90;;;;;;5016004;28;20100;-62
2023/07/12 03:48:08;;;;;;;4.65;2.47;;;17.70;99.90;;;;;;5015663;28;20034;-62
2023/07/12 03:50:37;;;;;;;5.85;2.67;;;17.50;99.90;;;;;;5015732;28;20045;-62
2023/07/12 03:53:02;;;;;;;6.07;3.00;;;17.80;99.90;;;;;;5014617;28;20049;-62
2023/07/12 03:55:28;;;;;;;4.43;3.05;;;18.10;99.90;;;;;;5015890;28;20042;-62
2023/07/12 03:57:53;;;;;;;6.75;2.90;;;17.30;99.90;;;;;;5015748;28;20045;-62
2023/07/12 04:00:19;;;;;;;5.55;2.40;;;17.90;99.90;;;;;;5015472;28;20524;-62
2023/07/12 04:02:44;;;;;;;9.05;2.78;;;17.20;99.90;;;;;;5015221;28;20046;-62
2023/07/12 04:05:10;;;;;;;3.75;2.67;;;17.30;99.90;;;;;;5015684;28;20049;-62
2023/07/12 04:07:36;;;;;;;7.22;2.47;;;17.30;99.90;;;;;;5015663;28;20034;-62
2023/07/12 04:10:02;;;;;;;8.23;2.75;;;17.30;99.90;;;;;;5015563;28;20038;-62
2023/07/12 04:12:28;;;;;;;4.60;2.78;;;17.30;99.90;;;;;;5013984;28;20050;-62
2023/07/12 04:14:54;;;;;;;5.22;2.70;;;17.40;99.90;;;;;;5015216;28;20036;-63
2023/07/12 04:17:20;;;;;;;5.55;2.47;;;17.00;99.90;;;;;;5014101;28;20045;-62
2023/07/12 04:19:46;;;;;;;6.40;2.85;;;17.00;99.90;;;;;;5015377;28;20037;-62
2023/07/12 04:22:11;;;;;;;5.50;3.03;;;17.50;99.90;;;;;;5015270;28;20042;-62
2023/07/12 04:24:37;;;;;;;5.55;2.53;;;17.30;99.90;;;;;;5015080;28;20092;-62
2023/07/12 04:27:03;;;;;;;10.45;3.00;;;17.20;99.90;;;;;;5015275;28;20046;-62
2023/07/12 04:29:29;;;;;;;6.82;3.28;;;17.20;99.90;;;;;;5015315;28;20048;-62
2023/07/12 04:31:55;;;;;;;5.80;3.15;;;17.30;99.90;;;;;;5030384;28;20070;-62
2023/07/12 04:34:20;;;;;;;6.15;3.00;;;17.30;99.90;;;;;;5015217;28;20469;-63
2023/07/12 04:36:46;;;;;;;7.05;3.28;;;17.80;99.90;;;;;;5015084;28;20121;-62
2023/07/12 04:39:11;;;;;;;10.30;2.90;;;17.60;99.90;;;;;;5013476;28;20042;-63
2023/07/12 04:41:37;;;;;;;6.43;3.25;;;18.10;99.90;;;;;;5014920;28;20543;-62
2023/07/12 04:44:02;;;;;;;6.57;3.08;;;17.40;99.90;;;;;;5014566;28;20061;-62
2023/07/12 04:46:28;;;;;;;5.47;3.05;;;17.30;99.90;;;;;;5014946;28;20048;-62
2023/07/12 04:48:54;;;;;;;5.72;2.92;;;17.80;99.90;;;;;;5014484;28;20116;-62
2023/07/12 04:51:20;;;;;;;7.47;2.90;;;18.10;99.90;;;;;;5013297;28;20053;-62
2023/07/12 04:53:49;;;;;;;10.00;3.50;;;17.60;99.90;;;;;;5014611;28;20038;-63
2023/07/12 04:56:15;;;;;;;4.85;2.38;;;17.00;99.90;;;;;;5014718;28;20048;-62
2023/07/12 04:58:42;;;;;;;9.77;3.03;;;17.80;99.90;;;;;;5014717;28;20041;-63
2023/07/12 05:01:09;;;;;;;9.00;2.75;;;17.70;99.90;;;;;;5013154;28;20100;-63
2023/07/12 05:03:35;;;;;;;5.50;2.85;;;17.20;99.90;;;;;;5014206;28;20058;-63
2023/07/12 05:06:01;;;;;;;6.85;2.83;;;17.30;99.90;;;;;;5014570;28;20489;-62
2023/07/12 05:08:27;;;;;;;9.02;3.13;;;17.30;99.90;;;;;;5014253;28;20096;-63
2023/07/12 05:11:00;;;;;;;6.22;2.70;;;17.50;99.90;;;;;;5014143;28;20084;-62
2023/07/12 05:13:26;;;;;;;5.15;3.03;;;17.10;99.90;;;;;;5014455;28;20048;-62
2023/07/12 05:15:53;;;;;;;7.75;3.05;;;17.40;99.90;;;;;;5014018;28;20490;-62
2023/07/12 05:18:19;;;;;;;7.30;2.67;;;17.60;99.90;;;;;;5014253;28;20046;-63
2023/07/12 05:20:45;;;;;;;5.60;2.97;;;17.10;99.90;;;;;;5014198;28;20402;-62
2023/07/12 05:23:11;;;;;;;7.00;2.90;;;17.70;99.90;;;;;;5013920;28;20038;-62
2023/07/12 05:25:37;;;;;;;7.07;2.92;;;17.50;99.90;;;;;;5014179;28;20042;-62
2023/07/12 05:28:03;;;;;;;9.30;3.00;;;17.00;99.90;;;;;;5013909;28;20121;-63
2023/07/12 05:30:31;;;;;;;9.70;3.20;;;17.10;99.90;;;;;;5013815;28;20349;-64
2023/07/12 05:32:56;;;;;;;6.57;2.72;;;17.90;99.90;;;;;;5012912;28;20037;-63
2023/07/12 05:35:22;;;;;;;5.88;3.10;;;17.40;99.90;;;;;;5013980;28;20114;-63
2023/07/12 05:37:49;;;;;;;5.22;2.90;;;17.70;99.90;;;;;;5013870;28;20112;-68
2023/07/12 05:40:15;;;;;;;8.52;3.25;;;18.10;99.90;;;;;;5013893;28;20167;-64
2023/07/12 05:42:41;;;;;;;7.15;3.15;;;17.50;99.90;;;;;;5013872;28;20497;-67
2023/07/12 05:45:09;;;;;;;7.03;2.85;;;17.80;99.90;;;;;;5012590;28;20144;-63
2023/07/12 05:47:35;;;;;;;8.40;3.10;;;17.60;99.90;;;;;;5013770;28;20038;-63
2023/07/12 05:50:00;;;;;;;8.50;3.30;;;17.90;99.90;;;;;;5013747;28;20052;-67
2023/07/12 05:52:27;;;;;;;7.00;3.05;;;17.80;99.90;;;;;;5013472;28;20041;-64
2023/07/12 05:54:54;;;;;;;9.57;3.65;;;17.90;99.90;;;;;;5013771;28;20111;-63
2023/07/12 05:57:20;;;;;;;5.85;3.13;;;17.70;99.90;;;;;;5013678;28;20077;-62
2023/07/12 05:59:45;;;;;;;7.85;3.45;;;18.20;99.90;;;;;;5013623;28;20478;-63
2023/07/12 06:02:14;;;;;;;6.47;3.22;;;17.90;99.90;;;;;;5013325;28;20033;-64
2023/07/12 06:04:41;;;;;;;11.82;4.10;;;17.80;99.90;;;;;;5013294;28;20124;-69
2023/07/12 06:07:07;;;;;;;7.45;3.58;;;17.40;99.90;;;;;;5012268;28;20506;-62
2023/07/12 06:09:33;;;;;;;5.47;3.38;;;18.10;99.90;;;;;;5013548;28;20396;-62
2023/07/12 06:11:58;;;;;;;5.22;3.20;;;18.20;99.90;;;;;;5013502;28;20069;-62
2023/07/12 06:14:24;;;;;;;6.40;3.42;;;17.70;99.90;;;;;;5013490;28;20417;-66
2023/07/12 06:16:50;;;;;;;9.40;3.38;;;18.30;99.90;;;;;;5012162;28;20038;-62
2023/07/12 06:19:15;;;;;;;7.60;3.42;;;18.00;99.90;;;;;;5013342;28;20073;-62
2023/07/12 06:21:41;;;;;;;7.90;3.65;;;18.40;99.90;;;;;;5013226;28;20038;-62
2023/07/12 06:24:07;;;;;;;8.77;3.20;;;17.60;99.90;;;;;;5012964;28;20049;-62
2023/07/12 06:26:33;;;;;;;9.48;4.20;;;17.90;99.90;;;;;;5013000;28;20042;-63
2023/07/12 06:29:00;;;;;;;11.43;4.68;;;18.30;99.90;;;;;;5013356;28;20050;-62
2023/07/12 06:31:26;;;;;;;7.30;3.53;;;18.00;99.90;;;;;;5013212;28;20413;-62
2023/07/12 06:33:51;;;;;;;6.82;3.65;;;18.30;99.90;;;;;;5012543;28;20069;-64
2023/07/12 06:36:17;;;;;;;8.68;3.80;;;18.20;99.90;;;;;;5013372;28;20042;-65
2023/07/12 06:38:44;;;;;;;7.13;3.17;;;;;;;;;;5011682;28;20053;-62
2023/07/12 06:41:09;;;;;;;7.53;4.03;;;18.20;99.90;;;;;;5014890;28;20088;-62
2023/07/12 06:43:35;;;;;;;8.65;3.88;;;18.90;99.90;;;;;;5017263;28;20080;-62
2023/07/12 06:46:00;;;;;;;5.88;3.55;;;18.20;99.90;;;;;;5017147;28;20537;-62
2023/07/12 06:48:26;;;;;;;6.95;2.97;;;19.00;99.90;;;;;;5017185;28;20123;-62
2023/07/12 06:50:53;;;;;;;7.25;3.33;;;18.20;99.90;;;;;;5017005;28;20497;-62
2023/07/12 06:53:19;;;;;;;9.82;4.20;;;18.60;99.90;;;;;;5017100;28;20116;-62
2023/07/12 06:55:45;;;;;;;10.68;3.67;;;18.30;99.90;;;;;;5016964;28;20129;-62
2023/07/12 06:58:11;;;;;;;6.53;3.53;;;18.70;99.90;;;;;;5016954;28;20046;-62
2023/07/12 07:00:42;;;;;;;6.95;3.13;;;18.20;99.90;;;;;;5016505;28;20034;-62
2023/07/12 07:03:09;;;;;;;11.35;4.18;;;18.40;99.90;;;;;;5016613;28;20054;-62
2023/07/12 07:05:37;;;;;;;11.57;3.65;;;18.50;99.90;;;;;;5016787;28;20046;-62
2023/07/12 07:08:03;;;;;;;8.75;3.40;;;18.50;99.90;;;;;;5016777;28;20034;-63
2023/07/12 07:10:29;;;;;;;8.75;3.50;;;18.40;99.90;;;;;;5016521;28;20045;-62
2023/07/12 07:12:55;;;;;;;6.63;3.38;;;18.40;99.90;;;;;;5016715;28;20034;-62
2023/07/12 07:15:21;;;;;;;8.93;3.58;;;18.60;99.90;;;;;;5016605;28;20048;-62
2023/07/12 07:17:46;;;;;;;7.80;3.50;;;18.80;99.90;;;;;;5016613;28;20433;-62
2023/07/12 07:20:12;;;;;;;9.45;3.60;;;19.30;99.90;;;;;;5016566;28;20100;-62
2023/07/12 07:22:38;;;;;;;9.27;3.20;;;19.50;99.90;;;;;;5014846;28;20088;-62
2023/07/12 07:25:04;;;;;;;7.65;3.63;;;19.20;99.90;;;;;;5016381;28;20066;-62
2023/07/12 07:27:30;;;;;;;8.02;2.95;;;19.20;99.90;;;;;;5016381;28;20080;-63
2023/07/12 07:29:55;;;;;;;6.75;3.33;;;19.20;99.90;;;;;;5016087;28;20502;-62
2023/07/12 07:32:21;;;;;;;6.03;3.35;;;19.50;99.90;;;;;;5015125;28;20136;-62
2023/07/12 07:34:47;;;;;;;5.45;2.63;;;19.40;99.90;;;;;;5016309;28;20041;-62
2023/07/12 07:37:14;;;;;;;9.02;3.55;;;19.30;99.90;;;;;;5016264;28;20075;-62
2023/07/12 07:39:39;;;;;;;7.70;2.88;;;19.60;99.90;;;;;;5015900;28;20049;-62
2023/07/12 07:42:05;;;;;;;6.55;2.85;;;19.50;99.90;;;;;;5016034;28;20038;-62
2023/07/12 07:44:31;;;;;;;8.45;3.22;;;19.40;99.90;;;;;;5016137;28;20116;-62
2023/07/12 07:46:56;;;;;;;6.93;2.88;;;19.30;99.90;;;;;;5015974;28;20046;-62
2023/07/12 07:49:22;;;;;;;4.97;2.80;;;19.00;99.90;;;;;;5015652;28;20073;-62
2023/07/12 07:51:48;;;;;;;8.57;2.67;;;19.50;99.90;;;;;;5015846;28;20113;-62
2023/07/12 07:54:13;;;;;;;5.40;2.80;;;19.60;99.90;;;;;;5014622;28;20073;-62
2023/07/12 07:56:41;;;;;;;7.38;2.63;;;19.50;99.90;;;;;;5014342;28;20077;-62
2023/07/12 07:59:07;;;;;;;4.22;2.60;;;19.50;99.90;;;;;;5014532;28;20046;-62
2023/07/12 08:01:33;;;;;;;5.88;2.63;;;19.40;99.90;;;;;;5015610;28;20041;-62
2023/07/12 08:03:58;;;;;;;8.90;3.15;;;19.00;99.90;;;;;;5014119;28;20046;-62
2023/07/12 08:06:24;;;;;;;8.60;2.90;;;19.60;99.90;;;;;;5015393;28;20477;-62
2023/07/12 08:08:51;;;;;;;10.75;3.50;;;19.50;99.90;;;;;;5015643;28;20073;-62
2023/07/12 08:11:17;;;;;;;6.28;3.22;;;19.70;99.90;;;;;;5015691;28;20040;-63
2023/07/12 08:13:42;;;;;;;5.65;3.47;;;19.60;99.90;;;;;;5015609;28;20038;-62
2023/07/12 08:16:08;;;;;;;6.43;3.38;;;19.90;99.90;;;;;;5015508;28;20044;-62
2023/07/12 08:18:34;;;;;;;6.97;3.28;;;19.80;99.90;;;;;;5015482;28;20413;-62
2023/07/12 08:21:00;;;;;;;5.88;2.83;;;20.20;99.90;;;;;;5014036;28;20045;-62
2023/07/12 08:23:28;;;;;;;7.40;3.05;;;19.60;99.90;;;;;;5014202;28;20042;-65
2023/07/12 08:25:54;;;;;;;7.00;2.92;;;20.00;99.90;;;;;;5015294;28;20104;-62
2023/07/12 08:28:20;;;;;;;8.48;3.08;;;19.50;99.90;;;;;;5015294;28;20138;-62
2023/07/12 08:30:45;;;;;;;8.68;3.53;;;19.30;99.90;;;;;;5015243;28;20038;-62
2023/07/12 08:33:11;;;;;;;9.48;3.20;;;19.50;99.90;;;;;;5014845;28;20049;-62
2023/07/12 08:35:37;;;;;;;6.30;2.63;;;19.60;99.90;;;;;;5015194;28;20046;-63
2023/07/12 08:38:02;;;;;;;8.50;3.25;;;19.90;99.90;;;;;;5015132;28;20077;-63
2023/07/12 08:40:28;;;;;;;6.13;3.10;;;20.00;99.90;;;;;;5014708;28;20042;-62
2023/07/12 08:42:54;;;;;;;10.90;3.22;;;20.40;99.90;;;;;;5013706;28;20065;-62
2023/07/12 08:45:26;;;;;;;5.00;2.85;;;21.30;99.90;;;;;;5014562;28;20033;-62
2023/07/12 08:48:00;;;;;;;7.18;3.00;;;20.60;99.90;;;;;;5013489;28;20048;-62
2023/07/12 08:50:29;;;;;;;6.22;3.03;;;20.50;99.90;;;;;;5014831;28;20434;-62
2023/07/12 08:52:55;;;;;;;7.72;2.88;;;20.50;99.90;;;;;;5013479;28;20077;-62
2023/07/12 08:55:22;;;;;;;7.95;3.47;;;20.30;99.90;;;;;;5014359;28;20120;-63
2023/07/12 08:57:58;;;;;;;8.35;2.90;;;20.40;99.90;;;;;;5014621;28;20114;-62
2023/07/12 09:00:32;;;;;;;9.65;3.10;;;20.50;99.10;;;;;;5014558;28;20492;-62
2023/07/12 09:02:58;;;;;;;6.95;3.15;;;20.70;98.40;;;;;;5013606;28;20054;-62
2023/07/12 09:05:24;;;;;;;6.38;2.75;;;20.90;98.10;;;;;;5014560;28;20084;-63
2023/07/12 09:08:04;;;;;;;7.35;2.88;;;20.80;97.50;;;;;;5013046;28;20103;-62
2023/07/12 09:10:34;;;;;;;8.10;3.00;;;20.90;97.00;;;;;;5014535;28;20034;-63
2023/07/12 09:13:01;;;;;;;8.90;2.72;;;20.80;93.70;;;;;;5014384;28;20033;-62
2023/07/12 09:15:37;;;;;;;6.53;3.13;;;20.60;93.50;;;;;;5014370;28;20037;-62
2023/07/12 09:18:06;;;;;;;11.05;3.45;;;20.40;93.50;;;;;;5012859;28;20474;-62
2023/07/12 09:20:34;;;;;;;12.07;3.50;;;;;;;;;;5013744;28;20051;-62
2023/07/12 09:23:00;;;;;;;7.57;2.95;;;;;;;;;;5013540;28;20045;-62
2023/07/12 09:25:35;;;;;;;6.13;2.90;;;19.60;99.90;;;;;;5013708;28;20109;-62
2023/07/12 09:28:01;;;;;;;5.70;2.65;;;19.50;99.90;;;;;;5012720;28;20099;-62
2023/07/12 09:30:29;;;;;;;6.05;2.55;;;19.50;99.90;;;;;;5012865;28;20041;-62
2023/07/12 09:32:56;;;;;;;5.03;2.63;;;18.80;99.90;;;;;;5012599;28;20042;-62
2023/07/12 09:35:22;;;;;;;6.07;2.33;;;18.80;99.90;;;;;;5013612;28;20052;-62
2023/07/12 09:38:00;;;;;;;7.05;2.45;;;18.70;99.90;;;;;;5013989;28;20121;-63
2023/07/12 09:40:29;;;;;;;5.75;2.72;;;18.60;99.90;;;;;;5013929;28;20038;-62
2023/07/12 09:42:57;;;;;;;11.43;3.20;;;19.20;99.90;;;;;;5013930;28;20034;-62
2023/07/12 09:45:28;;;;;;;11.02;3.47;;;18.60;99.90;;;;;;5013881;28;20456;-62
2023/07/12 09:48:09;;;;;;;8.43;3.70;;;18.70;99.90;;;;;;5013492;28;20092;-62
2023/07/12 09:50:53;;;;;;;5.43;3.45;;;18.90;99.90;;;;;;5013715;28;20116;-62
2023/07/12 09:53:42;;;;;;;7.30;3.42;;;18.90;99.90;;;;;;5013636;28;20042;-62
2023/07/12 09:56:39;;;;;;;5.55;3.00;;;18.90;99.90;;;;;;5012395;28;20077;-63
2023/07/12 09:59:18;;;;;;;8.43;3.10;;;18.90;99.90;;;;;;5013697;28;20030;-62
2023/07/12 10:02:07;;;;;;;5.80;3.40;;;18.90;99.90;;;;;;5012119;28;20513;-62
2023/07/12 10:04:32;;;;;;;5.65;3.25;;;19.10;99.90;;;;;;5010343;28;20490;-62
2023/07/12 10:06:58;;;;;;;4.72;2.88;;;19.80;99.90;;;;;;5011956;28;20053;-63
2023/07/12 10:09:31;;;;;;;6.53;2.50;;;19.60;99.90;;;;;;5013326;28;20448;-62
2023/07/12 10:12:23;;;;;;;5.85;3.17;;;19.80;99.90;;;;;;5012993;28;20468;-62
2023/07/12 10:14:52;;;;;;;6.90;3.10;;;19.80;99.90;;;;;;5012640;28;20523;-66
2023/07/12 10:17:24;;;;;;;3.88;2.20;;;19.70;99.90;;;;;;5013372;28;20088;-63
2023/07/12 10:19:53;;;;;;;5.47;1.95;;;19.70;99.90;;;;;;5012065;28;20509;-63
2023/07/12 10:22:27;;;;;;;5.65;2.30;;;19.60;99.90;;;;;;5012960;28;20037;-63
2023/07/12 10:24:53;;;;;;;6.85;1.95;;;19.80;99.90;;;;;;5012960;28;20056;-63
2023/07/12 10:27:24;;;;;;;3.08;2.13;;;20.00;99.90;;;;;;5013025;28;20124;-62
2023/07/12 10:29:57;;;;;;;6.53;2.22;;;20.20;99.90;;;;;;5012949;28;20041;-62
2023/07/12 10:32:27;;;;;;;5.97;2.42;;;20.20;99.90;;;;;;5013226;28;20077;-63
2023/07/12 10:35:21;;;;;;;4.78;1.98;;;20.70;99.90;;;;;;5013187;28;20042;-63
2023/07/12 10:38:03;;;;;;;9.13;2.40;;;20.80;99.90;;;;;;5013190;28;20041;-63
2023/07/12 10:40:39;;;;;;;6.55;1.95;;;21.00;99.90;;;;;;5013123;28;20049;-63
2023/07/12 10:43:13;;;;;;;10.70;2.20;;;21.70;99.90;;;;;;5013168;28;20426;-63
2023/07/12 10:45:39;;;;;;;5.57;1.98;;;21.30;99.90;;;;;;5013120;28;20046;-62
2023/07/12 10:48:08;;;;;;;11.32;2.38;;;21.20;99.90;;;;;;5013133;28;20117;-63
2023/07/12 10:50:37;;;;;;;3.97;2.08;;;22.00;99.90;;;;;;5011847;28;20074;-61
2023/07/12 10:53:23;;;;;;;4.72;2.17;;;21.50;99.90;;;;;;5013091;28;20486;-62
2023/07/12 10:56:10;;;;;;;3.58;1.65;;;21.30;99.90;;;;;;5011434;28;20081;-62
2023/07/12 10:58:57;;;;;;;7.60;1.95;;;20.90;99.90;;;;;;5012685;28;20045;-63
2023/07/12 11:01:41;;;;;;;9.45;2.60;;;20.70;99.90;;;;;;5012914;28;20060;-62
2023/07/12 11:04:15;;;;;;;2.40;1.63;;;20.70;99.90;;;;;;5011444;28;20058;-62
2023/07/12 11:07:07;;;;;;;4.97;1.67;;;20.70;99.90;;;;;;5012983;28;20057;-63
2023/07/12 11:09:48;;;;;;;5.88;2.05;;;20.80;99.90;;;;;;5013038;28;20210;-62
2023/07/12 11:12:18;;;;;;;3.97;1.60;;;20.70;99.90;;;;;;5012662;28;20038;-63
2023/07/12 11:14:48;;;;;;;5.28;1.88;;;21.20;99.90;;;;;;5011493;28;20049;-62
2023/07/12 11:17:17;;;;;;;6.28;1.60;;;21.10;99.90;;;;;;5011764;28;20092;-62
2023/07/12 11:19:49;;;;;;;4.97;1.45;;;21.20;99.90;;;;;;5012937;28;20104;-63
2023/07/12 11:22:22;;;;;;;4.32;1.60;;;21.40;99.90;;;;;;5012494;28;20038;-63
2023/07/12 11:24:58;;;;;;;4.93;1.80;;;21.90;99.90;;;;;;5012902;28;20440;-63
2023/07/12 11:27:32;;;;;;;2.88;1.00;;;22.10;87.50;;;;;;5015254;28;20677;-62
2023/07/12 11:30:20;;;;;;;3.17;1.20;;;21.70;99.90;;;;;;5016514;28;20045;-62
2023/07/12 11:32:46;;;;;;;4.65;1.52;;;21.70;1.00;;;;;;5016482;28;20041;-63
2023/07/12 11:35:20;;;;;;;1.40;1.30;;;21.80;1.00;;;;;;5016408;28;20046;-62
2023/07/12 11:37:55;;;;;;;9.82;1.20;;;21.80;99.90;;;;;;5016090;28;20037;-63
2023/07/12 11:40:24;;;;;;;3.50;1.30;;;21.70;99.90;;;;;;5016072;28;20054;-63
2023/07/12 11:42:50;;;;;;;3.25;1.00;;;21.70;99.90;;;;;;5014640;28;20044;-63
2023/07/12 11:45:19;;;;;;;2.85;1.38;;;21.70;99.90;;;;;;5015964;28;20490;-63
2023/07/12 11:47:48;;;;;;;2.53;1.50;;;21.80;99.90;;;;;;5016109;28;20092;-63
2023/07/12 11:50:27;;;;;;;2.63;1.30;;;22.30;82.60;;;;;;5016178;28;20038;-63
2023/07/12 11:52:54;;;;;;;2.20;1.25;;;21.80;99.90;;;;;;5016051;28;20048;-65
2023/07/12 11:55:22;;;;;;;4.60;1.52;;;21.80;1.00;;;;;;5016176;28;20026;-63
2023/07/12 11:57:49;;;;;;;5.03;1.50;;;21.80;99.90;;;;;;5015972;28;20117;-63
2023/07/12 12:00:28;;;;;;;3.50;1.33;;;22.10;99.90;;;;;;4998393;28;20034;-63
2023/07/12 12:02:58;;;;;;;4.18;1.58;;;22.00;18.00;;;;;;5015632;28;20493;-63
2023/07/12 12:05:28;;;;;;;;;;;22.10;99.90;;;;;;5016336;28;20420;-63
2023/07/12 12:07:56;;;;;;;7.18;1.52;;;22.20;99.90;;;;;;5015805;28;19917;-63
2023/07/12 12:10:28;;;;;;;4.82;1.23;;;22.30;75.60;;;;;;5015792;28;20038;-63
2023/07/12 12:12:54;;;;;;;4.05;1.35;;;22.80;99.90;;;;;;5014117;28;20042;-62
2023/07/12 12:15:24;;;;;;;2.22;1.50;;;22.70;99.90;;;;;;5015739;28;20038;-62
2023/07/12 12:17:51;;;;;;;4.27;1.53;;;22.40;99.90;;;;;;5015406;28;20424;-63
2023/07/12 12:20:22;;;;;;;2.55;1.17;;;22.20;99.90;;;;;;5015649;28;20108;-64
2023/07/12 12:23:10;;;;;;;4.53;1.30;;;22.20;99.90;;;;;;5015559;28;20478;-63
2023/07/12 12:25:45;;;;;;;3.30;1.35;;;22.10;99.90;;;;;;5015451;28;20041;-67
2023/07/12 12:28:24;;;;;;;1.67;1.00;;;22.20;99.90;;;;;;5015449;28;20038;-63
2023/07/12 12:31:17;;;;;;;1.65;0.98;;;22.20;99.90;;;;;;5015188;28;20045;-63
2023/07/12 12:33:51;;;;;;;6.03;1.50;;;22.20;99.90;;;;;;5015342;28;20042;-64
2023/07/12 12:36:26;;;;;;;2.63;1.00;;;22.10;99.90;;;;;;5015311;28;20421;-62
2023/07/12 12:39:19;;;;;;;2.33;0.90;;;22.10;99.90;;;;;;5014046;28;20046;-63
2023/07/12 12:42:15;;;;;;;5.32;1.13;;;22.00;99.90;;;;;;5009479;28;20058;-63
2023/07/12 12:44:41;;;;;;;2.05;1.15;;;;;;;;;;5014883;28;20129;-63
2023/07/12 12:47:19;;;;;;;2.42;0.98;;;22.20;40.30;;;;;;5014732;28;20053;-63
2023/07/12 12:49:45;;;;;;;4.63;1.35;;;22.30;8.70;;;;;;5015000;28;20121;-63
2023/07/12 12:52:32;;;;;;;2.40;0.57;;;22.40;53.60;;;;;;5014941;28;20466;-63
2023/07/12 12:55:04;;;;;;;2.28;0.93;;;22.40;1.00;;;;;;5013787;28;20103;-63
2023/07/12 12:57:33;;;;;;;1.80;0.70;;;22.40;1.00;;;;;;4997081;28;20068;-63